Terminal Aerodrome Forecast
Issued by NWS

Home | Current Version | Previous Version | Text Only | Print | Product List | Glossary On
Versions: 1 2 3 4 5 6 7 8 9 10 11 12
000
FTUS42 KMLB 202300
TAFISM
TAF
KISM 202334Z 2100/2124 32005KT P6SM SCT050 SCT250
     FM210100 00000KT P6SM FEW250
     FM211400 24005KT P6SM FEW040 FEW250
     FM212200 12004KT P6SM SCT040
      AMD NOT SKED 2102/2111=

USA.gov is the U.S. government's official web portal to all federal, state and local government web resources and services.